sensor_id;sensor_type;location;lat;lon;timestamp;pressure;altitude;pressure_sealevel;temperature;humidity
72038;BME280;59900;50.788;12.904;2022-12-29T00:02:23;96914.97;;;8.29;68.96
72038;BME280;59900;50.788;12.904;2022-12-29T00:04:49;96900.69;;;8.32;68.67
72038;BME280;59900;50.788;12.904;2022-12-29T00:07:16;96901.53;;;8.39;68.94
72038;BME280;59900;50.788;12.904;2022-12-29T00:09:41;96896.72;;;8.49;69.86
72038;BME280;59900;50.788;12.904;2022-12-29T00:12:06;96906.81;;;8.59;70.26
72038;BME280;59900;50.788;12.904;2022-12-29T00:14:31;96899.78;;;8.66;70.14
72038;BME280;59900;50.788;12.904;2022-12-29T00:17:15;96893.53;;;8.73;69.89
72038;BME280;59900;50.788;12.904;2022-12-29T00:19:41;96906.44;;;8.81;69.78
72038;BME280;59900;50.788;12.904;2022-12-29T00:22:25;96886.69;;;8.85;70.11
72038;BME280;59900;50.788;12.904;2022-12-29T00:25:11;96894.97;;;8.89;70.79
72038;BME280;59900;50.788;12.904;2022-12-29T00:27:55;96889.50;;;8.90;70.76
72038;BME280;59900;50.788;12.904;2022-12-29T00:30:38;96884.66;;;8.87;71.39
72038;BME280;59900;50.788;12.904;2022-12-29T00:33:29;96878.25;;;8.83;70.84
72038;BME280;59900;50.788;12.904;2022-12-29T00:36:20;96890.72;;;8.81;71.78
72038;BME280;59900;50.788;12.904;2022-12-29T00:38:50;96869.97;;;8.80;71.54
72038;BME280;59900;50.788;12.904;2022-12-29T00:41:35;96877.81;;;8.80;72.05
72038;BME280;59900;50.788;12.904;2022-12-29T00:44:19;96884.28;;;8.77;72.18
72038;BME280;59900;50.788;12.904;2022-12-29T00:46:44;96884.88;;;8.79;71.52
72038;BME280;59900;50.788;12.904;2022-12-29T00:49:12;96886.69;;;8.79;71.52
72038;BME280;59900;50.788;12.904;2022-12-29T00:51:58;96879.03;;;8.77;71.43
72038;BME280;59900;50.788;12.904;2022-12-29T00:54:24;96880.03;;;8.76;72.13
72038;BME280;59900;50.788;12.904;2022-12-29T00:56:51;96887.47;;;8.73;72.04
72038;BME280;59900;50.788;12.904;2022-12-29T00:59:18;96883.44;;;8.70;72.61
72038;BME280;59900;50.788;12.904;2022-12-29T01:01:46;96878.22;;;8.70;72.83
72038;BME280;59900;50.788;12.904;2022-12-29T01:04:11;96882.84;;;8.68;73.01
72038;BME280;59900;50.788;12.904;2022-12-29T01:06:38;96879.59;;;8.66;72.44
72038;BME280;59900;50.788;12.904;2022-12-29T01:09:05;96877.00;;;8.66;72.62
72038;BME280;59900;50.788;12.904;2022-12-29T01:11:49;96894.16;;;8.69;72.58
72038;BME280;59900;50.788;12.904;2022-12-29T01:14:15;96883.44;;;8.70;72.54
72038;BME280;59900;50.788;12.904;2022-12-29T01:16:40;96890.31;;;8.71;72.66
72038;BME280;59900;50.788;12.904;2022-12-29T01:19:06;96890.31;;;8.71;72.63
72038;BME280;59900;50.788;12.904;2022-12-29T01:21:32;96887.69;;;8.71;72.14
72038;BME280;59900;50.788;12.904;2022-12-29T01:23:57;96888.50;;;8.72;72.32
72038;BME280;59900;50.788;12.904;2022-12-29T01:26:23;96892.94;;;8.71;72.69
72038;BME280;59900;50.788;12.904;2022-12-29T01:28:48;96890.72;;;8.68;73.14
72038;BME280;59900;50.788;12.904;2022-12-29T01:31:14;96882.22;;;8.66;73.02
72038;BME280;59900;50.788;12.904;2022-12-29T01:33:40;96896.34;;;8.65;73.26
72038;BME280;59900;50.788;12.904;2022-12-29T01:36:08;96899.97;;;8.64;73.39
72038;BME280;59900;50.788;12.904;2022-12-29T01:38:35;96883.44;;;8.64;73.80
72038;BME280;59900;50.788;12.904;2022-12-29T01:41:00;96876.59;;;8.63;73.37
72038;BME280;59900;50.788;12.904;2022-12-29T01:48:52;96863.28;;;8.58;73.85
72038;BME280;59900;50.788;12.904;2022-12-29T01:51:19;96872.53;;;8.60;73.33
72038;BME280;59900;50.788;12.904;2022-12-29T01:53:46;96859.44;;;8.60;73.14
72038;BME280;59900;50.788;12.904;2022-12-29T01:56:14;96866.53;;;8.60;73.29
72038;BME280;59900;50.788;12.904;2022-12-29T01:58:43;96855.84;;;8.61;72.77
72038;BME280;59900;50.788;12.904;2022-12-29T02:01:10;96869.94;;;8.67;72.59
72038;BME280;59900;50.788;12.904;2022-12-29T02:03:35;96867.13;;;8.68;72.28
72038;BME280;59900;50.788;12.904;2022-12-29T02:06:11;96866.75;;;8.71;72.02
72038;BME280;59900;50.788;12.904;2022-12-29T02:08:38;96862.09;;;8.73;71.89
72038;BME280;59900;50.788;12.904;2022-12-29T02:11:05;96860.28;;;8.74;71.74
72038;BME280;59900;50.788;12.904;2022-12-29T02:13:30;96868.97;;;8.74;71.88
72038;BME280;59900;50.788;12.904;2022-12-29T02:16:25;96863.72;;;8.74;71.74
72038;BME280;59900;50.788;12.904;2022-12-29T02:19:06;96870.78;;;8.74;71.36
72038;BME280;59900;50.788;12.904;2022-12-29T02:21:59;96849.59;;;8.75;71.64
72038;BME280;59900;50.788;12.904;2022-12-29T02:24:40;96854.84;;;8.75;71.77
72038;BME280;59900;50.788;12.904;2022-12-29T02:30:11;96831.66;;;8.79;71.73
72038;BME280;59900;50.788;12.904;2022-12-29T02:32:56;96844.19;;;8.83;71.78
72038;BME280;59900;50.788;12.904;2022-12-29T02:35:53;96838.53;;;8.86;71.84
72038;BME280;59900;50.788;12.904;2022-12-29T02:38:46;96838.72;;;8.91;71.35
72038;BME280;59900;50.788;12.904;2022-12-29T02:41:21;96827.84;;;8.94;71.53
72038;BME280;59900;50.788;12.904;2022-12-29T02:43:56;96821.56;;;8.95;71.33
72038;BME280;59900;50.788;12.904;2022-12-29T02:46:43;96830.25;;;8.96;71.43
72038;BME280;59900;50.788;12.904;2022-12-29T02:49:18;96826.41;;;8.98;71.19
72038;BME280;59900;50.788;12.904;2022-12-29T02:51:52;96807.88;;;9.00;71.08
72038;BME280;59900;50.788;12.904;2022-12-29T02:54:19;96822.38;;;9.02;71.26
72038;BME280;59900;50.788;12.904;2022-12-29T02:57:10;96826.22;;;9.07;70.86
72038;BME280;59900;50.788;12.904;2022-12-29T02:59:35;96811.69;;;9.11;71.19
72038;BME280;59900;50.788;12.904;2022-12-29T03:07:30;96814.31;;;9.17;70.73
72038;BME280;59900;50.788;12.904;2022-12-29T03:10:30;96810.47;;;9.20;70.79
72038;BME280;59900;50.788;12.904;2022-12-29T03:13:12;96811.88;;;9.22;70.93
72038;BME280;59900;50.788;12.904;2022-12-29T03:16:14;96818.31;;;9.20;70.93
72038;BME280;59900;50.788;12.904;2022-12-29T03:19:08;96807.44;;;9.23;71.24
72038;BME280;59900;50.788;12.904;2022-12-29T03:21:37;96803.19;;;9.22;71.61
72038;BME280;59900;50.788;12.904;2022-12-29T03:24:27;96806.63;;;9.22;71.87
72038;BME280;59900;50.788;12.904;2022-12-29T03:26:56;96809.88;;;9.24;71.84
72038;BME280;59900;50.788;12.904;2022-12-29T03:29:23;96815.69;;;9.26;71.92
72038;BME280;59900;50.788;12.904;2022-12-29T03:31:50;96811.66;;;9.30;72.30
72038;BME280;59900;50.788;12.904;2022-12-29T03:34:17;96808.41;;;9.35;72.10
72038;BME280;59900;50.788;12.904;2022-12-29T03:36:50;96793.28;;;9.37;72.33
72038;BME280;59900;50.788;12.904;2022-12-29T03:39:18;96778.75;;;9.41;72.85
72038;BME280;59900;50.788;12.904;2022-12-29T03:41:45;96796.69;;;9.44;72.63
72038;BME280;59900;50.788;12.904;2022-12-29T03:44:12;96790.81;;;9.48;72.68
72038;BME280;59900;50.788;12.904;2022-12-29T03:46:37;96785.16;;;9.51;72.58
72038;BME280;59900;50.788;12.904;2022-12-29T03:49:03;96788.41;;;9.53;72.79
72038;BME280;59900;50.788;12.904;2022-12-29T03:51:28;96781.94;;;9.56;72.72
72038;BME280;59900;50.788;12.904;2022-12-29T03:53:53;96769.41;;;9.58;72.59
72038;BME280;59900;50.788;12.904;2022-12-29T03:56:19;96771.03;;;9.59;72.63
72038;BME280;59900;50.788;12.904;2022-12-29T03:58:44;96779.47;;;9.61;72.76
72038;BME280;59900;50.788;12.904;2022-12-29T04:01:09;96771.84;;;9.60;72.43
72038;BME280;59900;50.788;12.904;2022-12-29T04:03:34;96770.00;;;9.60;71.85
72038;BME280;59900;50.788;12.904;2022-12-29T04:06:00;96788.56;;;9.58;72.21
72038;BME280;59900;50.788;12.904;2022-12-29T04:08:25;96787.38;;;9.54;71.94
72038;BME280;59900;50.788;12.904;2022-12-29T04:10:50;96783.56;;;9.50;71.72
72038;BME280;59900;50.788;12.904;2022-12-29T04:13:16;96788.59;;;9.45;71.83
72038;BME280;59900;50.788;12.904;2022-12-29T04:15:42;96794.50;;;9.41;72.11
72038;BME280;59900;50.788;12.904;2022-12-29T04:18:08;96792.50;;;9.36;72.17
72038;BME280;59900;50.788;12.904;2022-12-29T04:20:33;96791.06;;;9.34;72.41
72038;BME280;59900;50.788;12.904;2022-12-29T04:23:17;96788.25;;;9.29;72.07
72038;BME280;59900;50.788;12.904;2022-12-29T04:25:45;96795.53;;;9.27;72.15
72038;BME280;59900;50.788;12.904;2022-12-29T04:28:10;96794.31;;;9.23;72.79
72038;BME280;59900;50.788;12.904;2022-12-29T04:30:35;96819.13;;;9.20;73.13
72038;BME280;59900;50.788;12.904;2022-12-29T04:33:01;96789.50;;;9.20;73.15
72038;BME280;59900;50.788;12.904;2022-12-29T04:35:26;96781.63;;;9.20;73.20
72038;BME280;59900;50.788;12.904;2022-12-29T04:37:51;96789.50;;;9.20;73.22
72038;BME280;59900;50.788;12.904;2022-12-29T04:40:16;96794.75;;;9.20;73.23
72038;BME280;59900;50.788;12.904;2022-12-29T04:42:42;96800.78;;;9.20;73.42
72038;BME280;59900;50.788;12.904;2022-12-29T04:45:07;96790.72;;;9.17;73.53
72038;BME280;59900;50.788;12.904;2022-12-29T04:47:33;96785.88;;;9.21;73.60
72038;BME280;59900;50.788;12.904;2022-12-29T04:49:58;96806.84;;;9.21;73.61
72038;BME280;59900;50.788;12.904;2022-12-29T04:52:23;96802.41;;;9.21;73.24
72038;BME280;59900;50.788;12.904;2022-12-29T04:54:48;96766.72;;;9.20;73.59
72038;BME280;59900;50.788;12.904;2022-12-29T04:57:14;96780.22;;;9.24;73.50
72038;BME280;59900;50.788;12.904;2022-12-29T04:59:39;96785.88;;;9.27;73.45
72038;BME280;59900;50.788;12.904;2022-12-29T05:02:04;96763.03;;;9.28;73.72
72038;BME280;59900;50.788;12.904;2022-12-29T05:04:29;96767.69;;;9.32;73.77
72038;BME280;59900;50.788;12.904;2022-12-29T05:06:55;96775.94;;;9.36;73.36
72038;BME280;59900;50.788;12.904;2022-12-29T05:09:20;96767.69;;;9.39;73.79
72038;BME280;59900;50.788;12.904;2022-12-29T05:11:45;96765.84;;;9.39;73.83
72038;BME280;59900;50.788;12.904;2022-12-29T05:14:10;96774.50;;;9.40;73.82
72038;BME280;59900;50.788;12.904;2022-12-29T05:16:36;96766.44;;;9.41;73.84
72038;BME280;59900;50.788;12.904;2022-12-29T05:19:01;96757.19;;;9.39;73.56
72038;BME280;59900;50.788;12.904;2022-12-29T05:21:26;96786.41;;;9.42;73.52
72038;BME280;59900;50.788;12.904;2022-12-29T05:23:51;96783.00;;;9.42;73.40
72038;BME280;59900;50.788;12.904;2022-12-29T05:26:17;96768.69;;;9.38;73.31
72038;BME280;59900;50.788;12.904;2022-12-29T05:28:42;96777.75;;;9.35;73.36
72038;BME280;59900;50.788;12.904;2022-12-29T05:31:07;96776.38;;;9.33;73.13
72038;BME280;59900;50.788;12.904;2022-12-29T05:33:32;96785.63;;;9.29;73.16
72038;BME280;59900;50.788;12.904;2022-12-29T05:36:07;96779.81;;;9.27;72.97
72038;BME280;59900;50.788;12.904;2022-12-29T05:38:32;96794.13;;;9.24;73.38
72038;BME280;59900;50.788;12.904;2022-12-29T05:40:58;96812.50;;;9.24;72.89
72038;BME280;59900;50.788;12.904;2022-12-29T05:43:23;96806.44;;;9.24;73.29
72038;BME280;59900;50.788;12.904;2022-12-29T05:45:49;96802.41;;;9.21;73.31
72038;BME280;59900;50.788;12.904;2022-12-29T05:48:14;96813.69;;;9.22;73.23
72038;BME280;59900;50.788;12.904;2022-12-29T05:50:40;96806.84;;;9.21;73.50
72038;BME280;59900;50.788;12.904;2022-12-29T05:53:05;96802.41;;;9.21;73.27
72038;BME280;59900;50.788;12.904;2022-12-29T05:55:30;96802.41;;;9.21;73.38
72038;BME280;59900;50.788;12.904;2022-12-29T05:57:56;96794.31;;;9.23;73.87
72038;BME280;59900;50.788;12.904;2022-12-29T06:00:21;96781.03;;;9.18;74.00
72038;BME280;59900;50.788;12.904;2022-12-29T06:02:46;96779.63;;;9.15;74.03
72038;BME280;59900;50.788;12.904;2022-12-29T06:05:12;96777.19;;;9.14;74.24
72038;BME280;59900;50.788;12.904;2022-12-29T06:07:37;96775.19;;;9.16;74.86
72038;BME280;59900;50.788;12.904;2022-12-29T06:10:03;96798.59;;;9.11;75.17
72038;BME280;59900;50.788;12.904;2022-12-29T06:12:29;96808.88;;;9.12;75.33
72038;BME280;59900;50.788;12.904;2022-12-29T06:14:54;96793.56;;;9.09;75.33
72038;BME280;59900;50.788;12.904;2022-12-29T06:17:19;96807.47;;;9.10;75.42
72038;BME280;59900;50.788;12.904;2022-12-29T06:19:44;96796.19;;;9.09;75.56
72038;BME280;59900;50.788;12.904;2022-12-29T06:22:10;96795.38;;;9.09;75.65
72038;BME280;59900;50.788;12.904;2022-12-29T06:24:37;96798.59;;;9.11;75.53
72038;BME280;59900;50.788;12.904;2022-12-29T06:27:02;96797.00;;;9.10;76.06
72038;BME280;59900;50.788;12.904;2022-12-29T06:29:27;96801.19;;;9.11;75.84
72038;BME280;59900;50.788;12.904;2022-12-29T06:31:53;96792.34;;;9.12;76.60
72038;BME280;59900;50.788;12.904;2022-12-29T06:34:21;96781.63;;;9.13;76.41
72038;BME280;59900;50.788;12.904;2022-12-29T06:36:46;96776.19;;;9.15;76.10
72038;BME280;59900;50.788;12.904;2022-12-29T06:39:11;96773.19;;;9.18;76.20
72038;BME280;59900;50.788;12.904;2022-12-29T06:41:38;96777.41;;;9.19;76.06
72038;BME280;59900;50.788;12.904;2022-12-29T06:44:03;96780.22;;;9.17;75.87
72038;BME280;59900;50.788;12.904;2022-12-29T06:46:28;96774.97;;;9.17;75.86
72038;BME280;59900;50.788;12.904;2022-12-29T06:48:53;96789.50;;;9.20;76.04
72038;BME280;59900;50.788;12.904;2022-12-29T06:51:19;96779.00;;;9.20;75.83
72038;BME280;59900;50.788;12.904;2022-12-29T06:53:44;96787.47;;;9.22;75.89
72038;BME280;59900;50.788;12.904;2022-12-29T06:56:09;96804.81;;;9.23;75.59
72038;BME280;59900;50.788;12.904;2022-12-29T06:58:34;96795.13;;;9.23;75.41
72038;BME280;59900;50.788;12.904;2022-12-29T07:01:00;96781.03;;;9.24;75.33
72038;BME280;59900;50.788;12.904;2022-12-29T07:03:25;96779.81;;;9.27;75.14
72038;BME280;59900;50.788;12.904;2022-12-29T07:05:50;96784.25;;;9.26;75.08
72038;BME280;59900;50.788;12.904;2022-12-29T07:08:15;96758.03;;;9.26;74.75
72038;BME280;59900;50.788;12.904;2022-12-29T07:10:41;96767.09;;;9.30;74.97
72038;BME280;59900;50.788;12.904;2022-12-29T07:13:06;96763.44;;;9.31;74.27
72038;BME280;59900;50.788;12.904;2022-12-29T07:15:32;96755.56;;;9.38;74.29
72038;BME280;59900;50.788;12.904;2022-12-29T07:17:58;96799.50;;;9.49;73.51
72038;BME280;59900;50.788;12.904;2022-12-29T07:20:23;96761.78;;;9.43;73.12
72038;BME280;59900;50.788;12.904;2022-12-29T07:22:48;96779.56;;;9.41;73.30
72038;BME280;59900;50.788;12.904;2022-12-29T07:25:13;96784.41;;;9.38;73.15
72038;BME280;59900;50.788;12.904;2022-12-29T07:27:39;96789.06;;;9.36;72.12
72038;BME280;59900;50.788;12.904;2022-12-29T07:30:04;96810.22;;;9.34;72.37
72038;BME280;59900;50.788;12.904;2022-12-29T07:32:33;96809.41;;;9.34;72.27
72038;BME280;59900;50.788;12.904;2022-12-29T07:34:58;96803.59;;;9.32;72.07
72038;BME280;59900;50.788;12.904;2022-12-29T07:37:24;96794.72;;;9.33;71.84
72038;BME280;59900;50.788;12.904;2022-12-29T07:39:49;96782.84;;;9.30;71.69
72038;BME280;59900;50.788;12.904;2022-12-29T07:42:14;96779.41;;;9.30;71.96
72038;BME280;59900;50.788;12.904;2022-12-29T07:44:40;96772.53;;;9.29;71.96
72038;BME280;59900;50.788;12.904;2022-12-29T07:47:05;96774.34;;;9.28;71.44
72038;BME280;59900;50.788;12.904;2022-12-29T07:49:30;96783.66;;;9.24;71.67
72038;BME280;59900;50.788;12.904;2022-12-29T07:51:56;96777.19;;;9.27;71.39
72038;BME280;59900;50.788;12.904;2022-12-29T07:54:21;96786.28;;;9.24;71.33
72038;BME280;59900;50.788;12.904;2022-12-29T07:56:47;96788.66;;;9.26;71.21
72038;BME280;59900;50.788;12.904;2022-12-29T07:59:12;96773.53;;;9.28;71.08
72038;BME280;59900;50.788;12.904;2022-12-29T08:01:38;96774.75;;;9.32;70.94
72038;BME280;59900;50.788;12.904;2022-12-29T08:04:04;96763.25;;;9.33;70.86
72038;BME280;59900;50.788;12.904;2022-12-29T08:06:29;96796.94;;;9.36;70.47
72038;BME280;59900;50.788;12.904;2022-12-29T08:08:56;96824.56;;;9.38;70.76
72038;BME280;59900;50.788;12.904;2022-12-29T08:11:21;96845.94;;;9.42;70.72
72038;BME280;59900;50.788;12.904;2022-12-29T08:13:47;96826.75;;;9.48;70.55
72038;BME280;59900;50.788;12.904;2022-12-29T08:16:12;96829.97;;;9.50;70.57
72038;BME280;59900;50.788;12.904;2022-12-29T08:18:37;96819.06;;;9.53;70.62
72038;BME280;59900;50.788;12.904;2022-12-29T08:21:03;96819.66;;;9.55;70.29
72038;BME280;59900;50.788;12.904;2022-12-29T08:23:29;96821.28;;;9.56;70.10
72038;BME280;59900;50.788;12.904;2022-12-29T08:25:59;96816.44;;;9.53;70.18
72038;BME280;59900;50.788;12.904;2022-12-29T08:28:25;96829.75;;;9.51;70.22
72038;BME280;59900;50.788;12.904;2022-12-29T08:30:50;96834.00;;;9.52;69.89
72038;BME280;59900;50.788;12.904;2022-12-29T08:33:15;96820.47;;;9.55;70.37
72038;BME280;59900;50.788;12.904;2022-12-29T08:35:40;96824.91;;;9.55;70.32
72038;BME280;59900;50.788;12.904;2022-12-29T08:38:05;96816.84;;;9.56;70.50
72038;BME280;59900;50.788;12.904;2022-12-29T08:40:31;96846.28;;;9.58;70.67
72038;BME280;59900;50.788;12.904;2022-12-29T08:42:56;96821.25;;;9.63;70.53
72038;BME280;59900;50.788;12.904;2022-12-29T08:45:21;96834.97;;;9.65;70.03
72038;BME280;59900;50.788;12.904;2022-12-29T08:47:46;96827.69;;;9.67;69.83
72038;BME280;59900;50.788;12.904;2022-12-29T08:50:12;96807.50;;;9.67;69.61
72038;BME280;59900;50.788;12.904;2022-12-29T08:52:37;96825.69;;;9.69;69.77
72038;BME280;59900;50.788;12.904;2022-12-29T08:55:02;96821.03;;;9.71;69.27
72038;BME280;59900;50.788;12.904;2022-12-29T08:57:28;96817.19;;;9.73;69.33
72038;BME280;59900;50.788;12.904;2022-12-29T08:59:53;96802.63;;;9.77;69.26
72038;BME280;59900;50.788;12.904;2022-12-29T09:02:18;96813.91;;;9.78;69.27
72038;BME280;59900;50.788;12.904;2022-12-29T09:04:43;96819.56;;;9.81;68.53
72038;BME280;59900;50.788;12.904;2022-12-29T09:07:09;96822.81;;;9.83;68.38
72038;BME280;59900;50.788;12.904;2022-12-29T09:09:34;96829.44;;;9.86;68.06
72038;BME280;59900;50.788;12.904;2022-12-29T09:11:59;96824.56;;;9.89;67.79
72038;BME280;59900;50.788;12.904;2022-12-29T09:14:24;96825.19;;;9.91;67.86
72038;BME280;59900;50.788;12.904;2022-12-29T09:16:54;96817.91;;;9.93;67.70
72038;BME280;59900;50.788;12.904;2022-12-29T09:19:38;96826.56;;;9.94;67.55
72038;BME280;59900;50.788;12.904;2022-12-29T09:22:04;96811.63;;;9.94;67.14
72038;BME280;59900;50.788;12.904;2022-12-29T09:24:29;96810.41;;;9.97;67.19
72038;BME280;59900;50.788;12.904;2022-12-29T09:26:54;96809.41;;;9.98;67.00
72038;BME280;59900;50.788;12.904;2022-12-29T09:29:19;96803.53;;;10.02;66.78
72038;BME280;59900;50.788;12.904;2022-12-29T09:31:44;96800.47;;;10.05;66.58
72038;BME280;59900;50.788;12.904;2022-12-29T09:34:10;96814.00;;;10.09;66.69
72038;BME280;59900;50.788;12.904;2022-12-29T09:36:35;96805.31;;;10.15;66.87
72038;BME280;59900;50.788;12.904;2022-12-29T09:39:03;96815.00;;;10.15;66.66
72038;BME280;59900;50.788;12.904;2022-12-29T09:41:49;96806.28;;;10.21;66.86
72038;BME280;59900;50.788;12.904;2022-12-29T09:44:24;96807.09;;;10.21;66.75
72038;BME280;59900;50.788;12.904;2022-12-29T09:46:53;96806.44;;;10.26;67.00
72038;BME280;59900;50.788;12.904;2022-12-29T09:49:40;96811.50;;;10.27;67.17
72038;BME280;59900;50.788;12.904;2022-12-29T09:52:15;96807.63;;;10.30;67.32
72038;BME280;59900;50.788;12.904;2022-12-29T09:54:58;96814.47;;;10.31;67.74
72038;BME280;59900;50.788;12.904;2022-12-29T09:57:58;96810.44;;;10.35;67.83
72038;BME280;59900;50.788;12.904;2022-12-29T10:00:36;96816.50;;;10.35;68.04
72038;BME280;59900;50.788;12.904;2022-12-29T10:03:22;96810.44;;;10.35;67.94
72038;BME280;59900;50.788;12.904;2022-12-29T10:06:11;96795.06;;;10.38;68.49
72038;BME280;59900;50.788;12.904;2022-12-29T10:11:55;96775.41;;;10.47;68.63
72038;BME280;59900;50.788;12.904;2022-12-29T10:14:41;96802.63;;;10.53;68.52
72038;BME280;59900;50.788;12.904;2022-12-29T10:20:15;96784.97;;;10.60;68.59
72038;BME280;59900;50.788;12.904;2022-12-29T10:22:52;96785.78;;;10.60;68.11
72038;BME280;59900;50.788;12.904;2022-12-29T10:25:23;96790.22;;;10.60;67.82
72038;BME280;59900;50.788;12.904;2022-12-29T10:27:50;96776.25;;;10.66;68.15
72038;BME280;59900;50.788;12.904;2022-12-29T10:30:17;96781.44;;;10.73;68.13
72038;BME280;59900;50.788;12.904;2022-12-29T10:32:49;96770.50;;;10.76;67.47
72038;BME280;59900;50.788;12.904;2022-12-29T10:35:20;96773.53;;;10.79;67.28
72038;BME280;59900;50.788;12.904;2022-12-29T10:40:33;96773.25;;;10.87;66.65
72038;BME280;59900;50.788;12.904;2022-12-29T10:43:23;96784.50;;;10.94;66.44
72038;BME280;59900;50.788;12.904;2022-12-29T10:45:51;96803.88;;;11.00;66.01
72038;BME280;59900;50.788;12.904;2022-12-29T10:48:22;96780.59;;;11.03;66.30
72038;BME280;59900;50.788;12.904;2022-12-29T10:50:50;96788.03;;;11.06;66.22
72038;BME280;59900;50.788;12.904;2022-12-29T10:53:20;96777.16;;;11.03;65.94
72038;BME280;59900;50.788;12.904;2022-12-29T10:55:47;96765.44;;;10.99;66.19
72038;BME280;59900;50.788;12.904;2022-12-29T10:58:14;96764.63;;;10.98;66.20
72038;BME280;59900;50.788;12.904;2022-12-29T11:00:41;96768.31;;;10.97;66.12
72038;BME280;59900;50.788;12.904;2022-12-29T11:03:29;96756.56;;;11.00;66.21
72038;BME280;59900;50.788;12.904;2022-12-29T11:06:18;96772.31;;;11.00;66.12
72038;BME280;59900;50.788;12.904;2022-12-29T11:08:58;96763.19;;;11.02;66.02
72038;BME280;59900;50.788;12.904;2022-12-29T11:11:36;96757.69;;;11.04;66.06
72038;BME280;59900;50.788;12.904;2022-12-29T11:14:19;96759.13;;;11.06;65.50
72038;BME280;59900;50.788;12.904;2022-12-29T11:16:56;96756.63;;;11.11;65.30
72038;BME280;59900;50.788;12.904;2022-12-29T11:19:24;96755.38;;;11.14;65.21
72038;BME280;59900;50.788;12.904;2022-12-29T11:21:50;96757.97;;;11.20;65.13
72038;BME280;59900;50.788;12.904;2022-12-29T11:24:25;96760.59;;;11.20;64.86
72038;BME280;59900;50.788;12.904;2022-12-29T11:26:53;96757.00;;;11.15;64.49
72038;BME280;59900;50.788;12.904;2022-12-29T11:29:25;96755.16;;;11.15;64.71
72038;BME280;59900;50.788;12.904;2022-12-29T11:31:56;96739.38;;;11.15;65.06
72038;BME280;59900;50.788;12.904;2022-12-29T11:34:26;96750.78;;;11.09;64.82
72038;BME280;59900;50.788;12.904;2022-12-29T11:36:54;96777.88;;;11.10;64.92
72038;BME280;59900;50.788;12.904;2022-12-29T11:39:33;96745.38;;;11.04;64.58
72038;BME280;59900;50.788;12.904;2022-12-29T11:42:00;96763.41;;;11.01;64.93
72038;BME280;59900;50.788;12.904;2022-12-29T11:44:27;96751.28;;;11.00;64.94
72038;BME280;59900;50.788;12.904;2022-12-29T11:46:56;96748.84;;;10.98;65.03
72038;BME280;59900;50.788;12.904;2022-12-29T11:49:25;96765.00;;;11.02;64.82
72038;BME280;59900;50.788;12.904;2022-12-29T11:51:52;96751.28;;;11.00;64.76
72038;BME280;59900;50.788;12.904;2022-12-29T11:54:31;96748.66;;;11.00;64.69
72038;BME280;59900;50.788;12.904;2022-12-29T11:56:58;96751.88;;;11.02;64.86
72038;BME280;59900;50.788;12.904;2022-12-29T11:59:39;96753.84;;;11.06;64.47
72038;BME280;59900;50.788;12.904;2022-12-29T12:02:20;96754.16;;;11.16;64.15
72038;BME280;59900;50.788;12.904;2022-12-29T12:04:49;96749.63;;;11.23;63.96
72038;BME280;59900;50.788;12.904;2022-12-29T12:07:24;96740.94;;;11.23;64.06
72038;BME280;59900;50.788;12.904;2022-12-29T12:10:01;96754.88;;;11.23;63.82
72038;BME280;59900;50.788;12.904;2022-12-29T12:12:32;96745.69;;;11.33;63.49
72038;BME280;59900;50.788;12.904;2022-12-29T12:15:01;96754.16;;;11.35;63.08
72038;BME280;59900;50.788;12.904;2022-12-29T12:17:49;96749.25;;;11.38;63.13
72038;BME280;59900;50.788;12.904;2022-12-29T12:20:27;96742.53;;;11.42;63.41
72038;BME280;59900;50.788;12.904;2022-12-29T12:26:30;96737.25;;;11.42;63.54
72038;BME280;59900;50.788;12.904;2022-12-29T12:29:18;96733.19;;;11.46;63.37
72038;BME280;59900;50.788;12.904;2022-12-29T12:31:53;96733.53;;;11.50;63.16
72038;BME280;59900;50.788;12.904;2022-12-29T12:34:24;96721.84;;;11.46;63.37
72038;BME280;59900;50.788;12.904;2022-12-29T12:39:49;96726.59;;;11.55;63.05
72038;BME280;59900;50.788;12.904;2022-12-29T12:45:32;96724.00;;;11.85;62.42
72038;BME280;59900;50.788;12.904;2022-12-29T12:48:23;96717.50;;;11.88;62.37
72038;BME280;59900;50.788;12.904;2022-12-29T12:51:08;96718.31;;;11.88;61.77
72038;BME280;59900;50.788;12.904;2022-12-29T12:54:01;96711.06;;;11.84;62.29
72038;BME280;59900;50.788;12.904;2022-12-29T12:59:56;96724.22;;;11.65;62.71
72038;BME280;59900;50.788;12.904;2022-12-29T13:05:03;96725.72;;;11.61;63.29
72038;BME280;59900;50.788;12.904;2022-12-29T13:21:31;96729.88;;;11.51;63.43
72038;BME280;59900;50.788;12.904;2022-12-29T13:24:14;96718.19;;;11.47;63.11
72038;BME280;59900;50.788;12.904;2022-12-29T13:26:48;96734.56;;;11.49;63.63
72038;BME280;59900;50.788;12.904;2022-12-29T13:29:20;96733.97;;;11.47;63.70
72038;BME280;59900;50.788;12.904;2022-12-29T13:32:12;96735.22;;;11.44;63.64
72038;BME280;59900;50.788;12.904;2022-12-29T13:35:07;96747.56;;;11.44;63.67
72038;BME280;59900;50.788;12.904;2022-12-29T13:37:47;96744.38;;;11.42;64.26
72038;BME280;59900;50.788;12.904;2022-12-29T13:40:17;96749.03;;;11.40;64.06
72038;BME280;59900;50.788;12.904;2022-12-29T13:42:44;96745.38;;;11.41;64.35
72038;BME280;59900;50.788;12.904;2022-12-29T13:45:15;96735.44;;;11.43;64.29
72038;BME280;59900;50.788;12.904;2022-12-29T13:48:06;96744.38;;;11.42;64.15
72038;BME280;59900;50.788;12.904;2022-12-29T13:50:36;96761.16;;;11.41;64.19
72038;BME280;59900;50.788;12.904;2022-12-29T13:53:29;96753.84;;;11.43;63.97
72038;BME280;59900;50.788;12.904;2022-12-29T13:56:25;96733.03;;;11.41;64.09
72038;BME280;59900;50.788;12.904;2022-12-29T13:58:59;96756.47;;;11.43;63.97
72038;BME280;59900;50.788;12.904;2022-12-29T14:01:48;96738.50;;;11.40;64.08
72038;BME280;59900;50.788;12.904;2022-12-29T14:04:23;96747.00;;;11.42;63.72
72038;BME280;59900;50.788;12.904;2022-12-29T14:07:16;96749.03;;;11.40;63.42
72038;BME280;59900;50.788;12.904;2022-12-29T14:12:27;96754.72;;;11.37;63.95